createdAt,value
2023-03-12T00:01:39.753Z,5.78
2023-03-12T00:04:06.920Z,6.55
2023-03-12T00:06:33.992Z,6.47
2023-03-12T00:09:02.033Z,6.28
2023-03-12T00:11:29.377Z,6.10
2023-03-12T00:13:57.956Z,6.22
2023-03-12T00:16:25.198Z,6.03
2023-03-12T00:18:53.715Z,6.70
2023-03-12T00:21:22.001Z,7.03
2023-03-12T00:23:49.315Z,5.77
2023-03-12T00:26:16.687Z,6.03
2023-03-12T00:28:43.776Z,6.30
2023-03-12T00:31:27.555Z,5.72
2023-03-12T00:33:55.594Z,6.65
2023-03-12T00:36:25.002Z,5.70
2023-03-12T00:38:52.654Z,5.43
2023-03-12T00:41:20.285Z,6.95
2023-03-12T00:43:47.973Z,5.72
2023-03-12T00:46:15.748Z,5.95
2023-03-12T00:48:43.432Z,6.23
2023-03-12T00:51:11.629Z,5.95
2023-03-12T00:53:38.601Z,6.28
2023-03-12T00:56:06.438Z,6.50
2023-03-12T00:58:33.386Z,6.25
2023-03-12T01:01:00.394Z,6.20
2023-03-12T01:03:27.690Z,6.18
2023-03-12T01:05:57.113Z,6.13
2023-03-12T01:08:24.776Z,5.50
2023-03-12T01:10:52.191Z,6.07
2023-03-12T01:13:19.208Z,5.90
2023-03-12T01:15:46.069Z,6.15
2023-03-12T01:18:13.021Z,5.95
2023-03-12T01:20:41.103Z,6.65
2023-03-12T01:23:08.958Z,5.82
2023-03-12T01:25:36.422Z,6.10
2023-03-12T01:28:03.998Z,5.53
2023-03-12T01:30:31.305Z,6.65
2023-03-12T01:32:58.473Z,5.70
2023-03-12T01:35:25.906Z,6.65
2023-03-12T01:37:53.401Z,5.77
2023-03-12T01:40:25.428Z,5.50
2023-03-12T01:42:57.060Z,6.18
2023-03-12T01:46:01.263Z,6.85
2023-03-12T01:48:34.273Z,6.00
2023-03-12T01:51:02.819Z,6.30
2023-03-12T01:53:30.896Z,6.55
2023-03-12T01:55:59.338Z,6.10
2023-03-12T01:58:28.265Z,6.25
2023-03-12T02:00:55.562Z,5.93
2023-03-12T02:03:22.821Z,5.23
2023-03-12T02:06:00.388Z,6.35
2023-03-12T02:08:28.399Z,6.80
2023-03-12T02:10:55.352Z,6.55
2023-03-12T02:13:22.377Z,5.60
2023-03-12T02:15:49.349Z,5.77
2023-03-12T02:18:21.342Z,5.60
2023-03-12T02:21:07.474Z,5.22
2023-03-12T02:23:45.705Z,5.65
2023-03-12T02:26:13.669Z,5.32
2023-03-12T02:28:44.270Z,4.63
2023-03-12T02:31:17.441Z,4.85
2023-03-12T02:33:44.416Z,5.05
2023-03-12T02:36:11.581Z,5.18
2023-03-12T02:38:38.610Z,5.43
2023-03-12T02:41:20.532Z,4.83
2023-03-12T02:44:16.730Z,5.13
2023-03-12T02:46:49.260Z,6.00
2023-03-12T02:49:18.578Z,5.68
2023-03-12T02:51:47.481Z,4.93
2023-03-12T02:54:16.049Z,5.53
2023-03-12T02:56:43.478Z,5.03
2023-03-12T02:59:11.601Z,6.22
2023-03-12T03:01:43.042Z,5.35
2023-03-12T03:04:11.427Z,5.72
2023-03-12T03:06:40.755Z,4.77
2023-03-12T03:09:08.120Z,4.55
2023-03-12T03:11:35.331Z,5.32
2023-03-12T03:14:07.151Z,4.97
2023-03-12T03:16:35.139Z,5.15
2023-03-12T03:19:02.399Z,5.07
2023-03-12T03:21:29.652Z,5.32
2023-03-12T03:23:56.862Z,5.20
2023-03-12T03:26:24.982Z,5.72
2023-03-12T03:28:52.791Z,5.43
2023-03-12T03:31:20.146Z,5.13
2023-03-12T03:33:47.522Z,5.72
2023-03-12T11:54:01.898Z,13.07
2023-03-12T11:56:40.979Z,8.52
2023-03-12T11:59:19.656Z,8.52
2023-03-12T12:02:18.060Z,8.20
2023-03-12T12:05:10.158Z,6.70
2023-03-12T12:08:30.613Z,7.32
2023-03-12T12:11:13.586Z,5.70
2023-03-12T12:13:49.440Z,7.05
2023-03-12T12:16:44.049Z,6.47
2023-03-12T12:19:20.688Z,7.25
2023-03-12T12:22:02.521Z,6.32
2023-03-12T12:25:08.440Z,7.28
2023-03-12T12:27:55.686Z,7.43
2023-03-12T12:30:50.524Z,7.63
2023-03-12T12:33:39.664Z,5.82
2023-03-12T12:36:09.812Z,7.65
2023-03-12T12:38:47.800Z,7.60
2023-03-12T12:41:26.684Z,7.50
2023-03-12T12:43:59.980Z,6.17
2023-03-12T12:46:32.440Z,6.50
2023-03-12T12:49:24.584Z,8.48
2023-03-12T12:51:57.274Z,7.20
2023-03-12T12:54:37.342Z,8.43
2023-03-12T12:57:49.475Z,6.67
2023-03-12T13:00:48.749Z,7.75
2023-03-12T13:03:22.914Z,7.63
2023-03-12T13:05:52.569Z,4.88
2023-03-12T13:08:40.316Z,5.78
2023-03-12T13:11:39.393Z,7.23
2023-03-12T13:14:10.172Z,7.38
2023-03-12T13:16:43.063Z,5.95
2023-03-12T13:19:16.561Z,6.18
2023-03-12T13:22:00.660Z,7.13
2023-03-12T13:24:32.579Z,5.33
2023-03-12T13:27:17.147Z,6.72
2023-03-12T13:29:43.966Z,4.85
2023-03-12T13:32:35.942Z,5.35
2023-03-12T13:35:22.981Z,5.68
2023-03-12T13:37:52.740Z,5.63
2023-03-12T13:40:28.892Z,4.95
2023-03-12T13:43:14.621Z,5.82
2023-03-12T13:46:36.786Z,5.03
2023-03-12T13:49:10.633Z,6.30
2023-03-12T13:51:45.440Z,4.30
2023-03-12T13:54:18.802Z,5.30
2023-03-12T13:56:59.371Z,6.55
2023-03-12T13:59:28.451Z,5.78
2023-03-12T14:02:00.309Z,5.63
2023-03-12T14:05:02.378Z,5.60
2023-03-12T14:07:53.467Z,5.60
2023-03-12T14:11:08.981Z,6.25
2023-03-12T14:13:41.972Z,5.95
2023-03-12T14:16:46.191Z,6.45
2023-03-12T14:19:14.654Z,6.03
2023-03-12T14:21:50.939Z,5.97
2023-03-12T14:24:31.928Z,5.88
2023-03-12T14:27:04.191Z,6.60
2023-03-12T14:30:07.431Z,6.22
2023-03-12T14:32:35.379Z,4.97
2023-03-12T14:35:33.700Z,6.40
2023-03-12T14:38:17.850Z,5.68
2023-03-12T14:40:55.411Z,6.22
2023-03-12T14:43:31.378Z,7.88
2023-03-12T14:46:05.936Z,7.70
2023-03-12T14:48:37.179Z,6.05
2023-03-12T14:51:06.584Z,6.35
2023-03-12T14:53:38.575Z,6.32
2023-03-12T14:56:29.344Z,6.13
2023-03-12T14:59:01.702Z,6.47
2023-03-12T15:01:32.641Z,7.25
2023-03-12T15:04:08.644Z,4.75
2023-03-12T15:06:40.511Z,5.82
2023-03-12T15:09:09.153Z,5.43
2023-03-12T15:11:39.670Z,6.00
2023-03-12T15:14:16.108Z,4.40
2023-03-12T15:16:46.541Z,7.70
2023-03-12T15:19:16.901Z,7.68
2023-03-12T15:21:44.861Z,5.80
2023-03-12T15:24:13.814Z,6.03
2023-03-12T15:26:41.430Z,6.47
2023-03-12T15:29:39.161Z,5.72
2023-03-12T15:32:14.802Z,5.70
2023-03-12T15:34:42.060Z,5.75
2023-03-12T15:37:33.728Z,6.13
2023-03-12T15:40:16.798Z,6.85
2023-03-12T15:42:49.833Z,6.07
2023-03-12T15:45:25.460Z,6.45
2023-03-12T15:48:12.418Z,6.03
2023-03-12T15:50:51.358Z,4.53
2023-03-12T15:53:18.278Z,7.05
2023-03-12T15:56:05.740Z,7.15
2023-03-12T15:58:35.546Z,6.32
2023-03-12T16:01:24.256Z,5.25
2023-03-12T16:03:51.162Z,6.87
2023-03-12T16:06:25.860Z,8.60
2023-03-12T16:08:57.829Z,7.20
2023-03-12T16:11:27.731Z,5.47
2023-03-12T16:14:22.534Z,6.32
2023-03-12T16:16:52.149Z,7.23
2023-03-12T16:19:21.766Z,7.00
2023-03-12T16:21:49.961Z,5.95
2023-03-12T16:24:17.552Z,6.18
2023-03-12T16:26:54.627Z,5.55
2023-03-12T16:29:23.170Z,6.63
2023-03-12T16:31:56.040Z,4.60
2023-03-12T16:34:23.622Z,6.43
2023-03-12T16:36:51.287Z,6.38
2023-03-12T16:39:18.986Z,6.65
2023-03-12T16:41:46.978Z,6.73
2023-03-12T16:44:21.148Z,6.88
2023-03-12T16:46:48.356Z,6.97
2023-03-12T16:49:17.216Z,7.50
2023-03-12T16:51:44.000Z,6.20
2023-03-12T16:54:12.253Z,7.53
2023-03-12T16:56:42.839Z,6.18
2023-03-12T16:59:26.069Z,7.30
2023-03-12T17:01:53.570Z,5.65
2023-03-12T17:04:20.765Z,4.90
2023-03-12T17:06:47.614Z,6.70
2023-03-12T17:09:14.434Z,7.85
2023-03-12T17:11:41.454Z,6.55
2023-03-12T17:14:21.616Z,5.93
2023-03-12T17:16:49.490Z,8.80
2023-03-12T17:19:17.122Z,7.47
2023-03-12T17:21:44.550Z,6.75
2023-03-12T17:24:15.290Z,7.85
2023-03-12T17:26:42.930Z,7.13
2023-03-12T17:29:10.175Z,7.43
2023-03-12T17:31:37.824Z,5.67
2023-03-12T17:34:05.097Z,8.13
2023-03-12T17:36:31.935Z,5.90
2023-03-12T17:39:00.044Z,5.88
2023-03-12T17:41:27.548Z,5.80
2023-03-12T17:43:55.425Z,4.80
2023-03-12T17:46:22.614Z,5.10
2023-03-12T17:48:49.507Z,5.03
2023-03-12T17:51:16.980Z,3.60
2023-03-12T17:53:45.366Z,3.80
2023-03-12T17:56:13.475Z,2.83
2023-03-12T17:58:41.327Z,3.58
2023-03-12T18:01:08.541Z,3.28
2023-03-12T18:03:39.134Z,3.53
2023-03-12T18:06:06.709Z,3.33
2023-03-12T18:08:34.469Z,2.87
2023-03-12T18:11:02.939Z,2.60
2023-03-12T18:13:30.712Z,3.38
2023-03-12T18:16:02.546Z,2.42
2023-03-12T18:18:35.970Z,3.17
2023-03-12T18:21:06.123Z,2.63
2023-03-12T18:23:33.991Z,3.03
2023-03-12T18:26:01.579Z,3.78
2023-03-12T18:28:31.975Z,2.72
2023-03-12T18:30:59.677Z,3.67
2023-03-12T18:33:30.803Z,2.43
2023-03-12T18:36:00.279Z,3.85
2023-03-12T18:38:28.764Z,3.45
2023-03-12T18:41:10.993Z,2.92
2023-03-12T18:43:41.901Z,3.65
2023-03-12T18:46:12.776Z,2.80
2023-03-12T18:48:47.908Z,2.42
2023-03-12T18:51:28.044Z,3.40
2023-03-12T18:53:58.472Z,2.70
2023-03-12T18:56:32.486Z,3.50
2023-03-12T18:59:13.290Z,3.47
2023-03-12T19:01:44.522Z,3.25
2023-03-12T19:04:27.680Z,3.75
2023-03-12T19:07:03.407Z,3.30
2023-03-12T19:09:43.182Z,2.97
2023-03-12T19:12:11.285Z,3.97
2023-03-12T19:14:41.027Z,4.22
2023-03-12T19:17:08.019Z,4.30
2023-03-12T19:19:46.762Z,4.93
2023-03-12T19:22:19.709Z,5.50
2023-03-12T19:25:01.689Z,4.53
2023-03-12T19:27:36.918Z,5.53
2023-03-12T19:30:10.846Z,6.38
2023-03-12T19:32:43.833Z,5.75
2023-03-12T19:35:14.662Z,6.45
2023-03-12T19:37:42.458Z,6.10
2023-03-12T19:40:10.887Z,6.20
2023-03-12T19:42:38.133Z,6.50
2023-03-12T19:45:05.697Z,5.32
2023-03-12T19:47:33.366Z,5.97
2023-03-12T19:50:04.865Z,4.23
2023-03-12T19:52:32.485Z,5.38
2023-03-12T19:55:05.462Z,5.38
2023-03-12T19:57:33.632Z,3.92
2023-03-12T20:00:00.491Z,5.45
2023-03-12T20:02:27.772Z,5.80
2023-03-12T20:04:55.503Z,5.15
2023-03-12T20:07:22.910Z,5.90
2023-03-12T20:09:50.055Z,4.20
2023-03-12T20:12:18.783Z,6.38
2023-03-12T20:14:48.798Z,5.37
2023-03-12T20:17:15.951Z,5.10
2023-03-12T20:19:42.904Z,6.88
2023-03-12T20:22:09.796Z,5.68
2023-03-12T20:24:36.625Z,5.43
2023-03-12T20:27:03.947Z,4.97
2023-03-12T20:29:31.421Z,6.25
2023-03-12T20:31:59.541Z,6.55
2023-03-12T20:34:26.526Z,4.93
2023-03-12T20:36:55.228Z,9.00
2023-03-12T20:39:22.364Z,7.80
2023-03-12T20:41:50.109Z,8.57
2023-03-12T20:44:18.516Z,5.15
2023-03-12T20:46:47.272Z,4.97
2023-03-12T20:49:18.075Z,6.55
2023-03-12T20:51:46.095Z,5.03
2023-03-12T20:54:13.301Z,5.72
2023-03-12T20:56:43.591Z,5.60
2023-03-12T20:59:11.947Z,5.97
2023-03-12T21:01:38.774Z,6.82
2023-03-12T21:04:06.071Z,5.47
2023-03-12T21:06:32.907Z,5.88
2023-03-12T21:09:00.135Z,5.47
2023-03-12T21:11:27.701Z,7.20
2023-03-12T21:13:56.681Z,5.40
2023-03-12T21:16:26.514Z,5.50
2023-03-12T21:19:07.828Z,7.65
2023-03-12T21:21:36.434Z,6.07
2023-03-12T21:24:03.576Z,5.38
2023-03-12T21:26:30.454Z,6.55
2023-03-12T21:28:57.309Z,6.37
2023-03-12T21:31:24.145Z,5.97
2023-03-12T21:33:54.817Z,6.45
2023-03-12T21:36:22.185Z,6.00
2023-03-12T21:38:49.329Z,5.78
2023-03-12T21:41:18.513Z,5.87
2023-03-12T21:43:46.600Z,5.53
2023-03-12T21:46:17.374Z,6.53
2023-03-12T21:48:46.839Z,6.00
2023-03-12T21:51:15.872Z,7.43
2023-03-12T21:53:43.148Z,6.27
2023-03-12T21:56:11.076Z,6.03
2023-03-12T21:58:38.238Z,5.97
2023-03-12T22:01:15.555Z,6.70
2023-03-12T22:03:43.483Z,6.22
2023-03-12T22:06:11.284Z,6.87
2023-03-12T22:08:38.747Z,7.95
2023-03-12T22:11:07.250Z,7.05
2023-03-12T22:13:34.402Z,5.93
2023-03-12T22:16:05.974Z,6.75
2023-03-12T22:18:35.879Z,6.50
2023-03-12T22:21:05.247Z,7.00
2023-03-12T22:23:32.125Z,7.07
2023-03-12T22:26:06.580Z,6.57
2023-03-12T22:28:33.823Z,7.15
2023-03-12T22:31:03.915Z,7.63
2023-03-12T22:33:31.161Z,6.55
2023-03-12T22:35:57.968Z,7.82
2023-03-12T22:38:25.486Z,7.15
2023-03-12T22:40:55.410Z,7.00
2023-03-12T22:43:25.380Z,6.73
2023-03-12T22:45:54.941Z,7.65
2023-03-12T22:48:21.795Z,6.53
2023-03-12T22:50:54.835Z,6.63
2023-03-12T22:53:21.964Z,7.40
2023-03-12T22:56:07.443Z,6.33
2023-03-12T22:58:34.829Z,6.60
2023-03-12T23:01:02.924Z,7.28
2023-03-12T23:03:32.192Z,7.25
2023-03-12T23:06:02.792Z,7.65
2023-03-12T23:08:30.623Z,6.83
2023-03-12T23:11:03.281Z,7.15
2023-03-12T23:13:32.393Z,7.03
2023-03-12T23:16:07.725Z,6.53
2023-03-12T23:18:35.449Z,6.97
2023-03-12T23:21:05.806Z,6.43
2023-03-12T23:23:33.068Z,6.22
2023-03-12T23:26:01.468Z,7.38
2023-03-12T23:28:29.434Z,6.60
2023-03-12T23:30:58.822Z,7.95
2023-03-12T23:33:26.412Z,6.90
2023-03-12T23:36:06.193Z,6.30
2023-03-12T23:38:35.763Z,6.38
2023-03-12T23:41:07.073Z,5.97
2023-03-12T23:43:34.877Z,6.55
2023-03-12T23:46:03.931Z,6.20
2023-03-12T23:48:32.625Z,6.75
2023-03-12T23:51:13.988Z,6.75
2023-03-12T23:53:43.266Z,6.63
2023-03-12T23:56:12.917Z,6.30
2023-03-12T23:58:40.579Z,6.13
